Terminal Aerodrome Forecast
Issued by NWS

Home | Current Version | Previous Version | Text Only | Print | Product List | Glossary On
Versions: 1 2 3 4 5 6 7 8 9 10 11 12 13
000
FTUS43 KSGF 141700
TAFJLN
TAF
KJLN 141727Z 1418/1518 33016G25KT 3SM -SN BR OVC015
     FM142000 34015G23KT P6SM OVC050
     FM150000 34009KT P6SM SKC
     FM150200 VRB05KT P6SM SKC
     FM151400 30007KT P6SM SKC=

USA.gov is the U.S. government's official web portal to all federal, state and local government web resources and services.